Time;durP1;ratioP1;P1;durP2;ratioP2;P2;SDS_P1;SDS_P2;PMS_P1;PMS_P2;Temp;Humidity;BMP_temperature;BMP_pressure;BME280_temperature;BME280_humidity;BME280_pressure;Samples;Min_cycle;Max_cycle;Signal;HPM_P1;HPM_P2
2022/06/20 00:00:20;;;;;;;7.40;4.03;;;21.10;90.60;;;;;;5066302;28;20451;-77
2022/06/20 00:02:52;;;;;;;10.07;4.03;;;21.10;90.80;;;;;;5067057;28;20430;-79
2022/06/20 00:05:22;;;;;;;9.70;3.80;;;21.00;90.90;;;;;;5067074;28;20962;-76
2022/06/20 00:07:48;;;;;;;7.93;3.90;;;21.00;91.00;;;;;;5066965;28;20522;-77
2022/06/20 00:10:16;;;;;;;5.90;4.40;;;20.90;91.20;;;;;;5066144;28;20526;-77
2022/06/20 00:12:43;;;;;;;16.73;5.03;;;20.90;91.40;;;;;;5066722;28;20185;-76
2022/06/20 00:15:20;;;;;;;7.47;4.17;;;20.80;91.40;;;;;;5066841;28;20585;-77
2022/06/20 00:17:46;;;;;;;9.67;4.87;;;20.80;91.60;;;;;;5064506;28;20452;-76
2022/06/20 00:20:13;;;;;;;11.30;3.70;;;20.80;91.80;;;;;;5059529;28;20815;-77
2022/06/20 00:22:38;;;;;;;7.53;4.10;;;20.80;91.60;;;;;;5066926;28;20184;-77
2022/06/20 00:25:04;;;;;;;13.27;3.80;;;20.90;91.70;;;;;;5065640;28;20463;-76
2022/06/20 00:27:30;;;;;;;8.20;4.73;;;20.90;91.80;;;;;;5067008;28;20891;-77
2022/06/20 00:29:56;;;;;;;18.93;4.50;;;21.00;91.70;;;;;;5066126;28;20280;-78
2022/06/20 00:32:21;;;;;;;13.73;4.00;;;21.00;91.70;;;;;;5066808;28;20192;-76
2022/06/20 00:34:47;;;;;;;14.90;5.20;;;21.00;91.70;;;;;;5066655;28;20285;-76
2022/06/20 00:37:18;;;;;;;14.20;4.53;;;21.10;91.80;;;;;;5065664;28;20213;-77
2022/06/20 00:39:45;;;;;;;10.63;4.53;;;21.10;91.80;;;;;;5082365;28;20181;-77
2022/06/20 00:42:10;;;;;;;13.90;5.20;;;21.10;91.90;;;;;;5065179;28;20423;-76
2022/06/20 00:44:41;;;;;;;6.33;4.23;;;21.10;91.60;;;;;;5065516;28;21037;-76
2022/06/20 00:47:11;;;;;;;12.60;4.83;;;21.20;91.50;;;;;;5065815;28;20235;-76
2022/06/20 00:49:49;;;;;;;18.60;4.40;;;21.30;91.10;;;;;;5066849;28;20447;-77
2022/06/20 00:52:38;;;;;;;17.67;5.43;;;21.30;91.10;;;;;;5065731;28;20427;-76
2022/06/20 00:55:18;;;;;;;13.30;5.50;;;21.30;92.70;;;;;;5052577;28;21321;-76
2022/06/20 00:57:51;;;;;;;11.50;4.70;;;21.40;94.60;;;;;;5065738;28;20451;-77
2022/06/20 01:00:18;;;;;;;14.73;5.30;;;21.20;95.40;;;;;;5066373;28;20569;-76
2022/06/20 01:02:51;;;;;;;15.60;5.20;;;21.00;96.00;;;;;;5070419;28;20426;-76
2022/06/20 01:05:56;;;;;;;16.70;5.67;;;20.80;97.00;;;;;;5070315;28;20438;-77
2022/06/20 01:08:23;;;;;;;14.60;5.33;;;20.70;98.10;;;;;;5026527;28;20437;-78
2022/06/20 01:10:57;;;;;;;14.80;5.30;;;20.60;98.30;;;;;;5062775;28;20423;-77
2022/06/20 01:13:23;;;;;;;12.83;5.80;;;20.50;99.30;;;;;;5070217;28;20458;-78
2022/06/20 01:15:52;;;;;;;19.23;5.87;;;20.40;99.20;;;;;;5070632;28;20428;-78
2022/06/20 01:18:23;;;;;;;13.30;5.13;;;20.30;99.60;;;;;;5069572;28;20526;-78
2022/06/20 01:20:50;;;;;;;12.30;4.30;;;20.30;99.90;;;;;;5069106;28;20800;-76
2022/06/20 01:23:24;;;;;;;18.07;5.30;;;20.20;99.90;;;;;;5069904;28;20451;-76
2022/06/20 01:26:08;;;;;;;11.20;5.27;;;20.10;99.90;;;;;;5070557;28;20805;-79
2022/06/20 01:28:38;;;;;;;9.30;4.30;;;20.10;99.90;;;;;;5067850;28;20530;-77
2022/06/20 01:31:06;;;;;;;11.40;5.33;;;20.00;99.90;;;;;;5070556;28;20414;-76
2022/06/20 01:33:32;;;;;;;19.60;6.13;;;20.00;99.90;;;;;;5069392;28;20479;-76
2022/06/20 01:38:44;;;;;;;19.30;6.00;;;20.00;99.90;;;;;;5069236;28;20266;-76
2022/06/20 01:43:59;;;;;;;18.40;6.27;;;19.90;99.90;;;;;;5069982;28;20529;-79
2022/06/20 01:46:28;;;;;;;15.67;7.20;;;19.90;99.90;;;;;;5068571;28;20435;-79
2022/06/20 01:48:56;;;;;;;21.60;6.70;;;19.90;99.90;;;;;;5056230;28;20482;-77
2022/06/20 01:51:30;;;;;;;14.53;6.40;;;19.90;99.90;;;;;;5067426;28;20999;-77
2022/06/20 01:53:57;;;;;;;11.43;5.60;;;19.90;99.90;;;;;;5069747;28;20513;-77
2022/06/20 01:56:27;;;;;;;17.80;6.80;;;20.00;99.90;;;;;;5069405;28;20447;-78
2022/06/20 01:58:55;;;;;;;11.03;4.93;;;20.00;99.90;;;;;;5069192;28;20554;-76
2022/06/20 02:01:21;;;;;;;10.60;4.87;;;20.00;99.90;;;;;;5066616;28;20496;-76
2022/06/20 02:03:47;;;;;;;12.90;5.97;;;20.00;99.90;;;;;;5057885;28;20450;-77
2022/06/20 02:06:16;;;;;;;11.30;5.87;;;20.00;99.90;;;;;;5069657;28;20348;-76
2022/06/20 02:08:46;;;;;;;12.07;5.90;;;20.00;99.90;;;;;;5066989;28;20471;-77
2022/06/20 02:11:17;;;;;;;21.27;5.53;;;20.00;99.90;;;;;;5069298;28;20423;-77
2022/06/20 02:13:47;;;;;;;13.90;6.57;;;20.00;99.90;;;;;;5069091;28;20478;-76
2022/06/20 02:16:16;;;;;;;10.70;5.30;;;20.00;99.90;;;;;;5069383;28;20514;-77
2022/06/20 02:18:47;;;;;;;8.90;4.50;;;20.10;99.90;;;;;;5064620;28;21004;-78
2022/06/20 02:21:20;;;;;;;17.50;5.60;;;20.10;99.90;;;;;;5066612;28;20433;-76
2022/06/20 02:23:49;;;;;;;16.80;5.70;;;20.10;99.90;;;;;;5068003;28;20792;-77
2022/06/20 02:26:16;;;;;;;13.63;6.40;;;20.10;99.90;;;;;;5068939;28;20430;-76
2022/06/20 02:29:03;;;;;;;16.03;5.80;;;20.20;99.90;;;;;;5068498;28;20958;-77
2022/06/20 02:31:29;;;;;;;13.13;5.93;;;20.30;99.90;;;;;;5068759;28;20431;-77
2022/06/20 02:33:55;;;;;;;21.77;6.67;;;20.40;99.90;;;;;;5067418;28;20474;-77
2022/06/20 02:36:22;;;;;;;16.57;6.60;;;20.40;99.90;;;;;;5068876;28;20875;-78
2022/06/20 02:38:49;;;;;;;10.00;4.97;;;20.20;99.90;;;;;;5056700;28;20452;-77
2022/06/20 02:41:19;;;;;;;15.67;5.70;;;19.90;99.90;;;;;;5070248;28;20434;-77
2022/06/20 02:43:55;;;;;;;22.93;6.93;;;19.60;99.90;;;;;;5070214;28;20476;-79
2022/06/20 02:46:25;;;;;;;14.53;5.70;;;19.30;99.90;;;;;;5070934;28;20457;-76
2022/06/20 02:48:54;;;;;;;17.37;5.93;;;19.20;99.90;;;;;;5068964;28;20450;-78
2022/06/20 02:51:28;;;;;;;16.80;6.30;;;19.10;99.90;;;;;;5066639;28;20566;-77
2022/06/20 02:53:59;;;;;;;15.13;6.17;;;19.00;99.90;;;;;;5061217;28;20510;-77
2022/06/20 02:56:28;;;;;;;17.93;5.93;;;19.00;99.90;;;;;;5069783;28;20415;-79
2022/06/20 02:58:58;;;;;;;27.37;5.37;;;18.90;99.90;;;;;;5067344;28;20443;-76
2022/06/20 03:01:52;;;;;;;15.33;4.83;;;18.90;99.90;;;;;;5071707;28;20462;-78
2022/06/20 03:04:22;;;;;;;14.97;4.93;;;18.90;99.90;;;;;;5065202;28;20454;-78
2022/06/20 03:06:55;;;;;;;11.53;6.30;;;18.90;99.90;;;;;;5068898;28;20451;-77
2022/06/20 03:09:25;;;;;;;12.43;6.30;;;18.90;99.90;;;;;;5065299;28;20489;-78
2022/06/20 03:11:52;;;;;;;16.50;6.73;;;18.90;99.90;;;;;;5070316;28;20430;-77
2022/06/20 03:14:21;;;;;;;24.03;7.77;;;19.00;99.90;;;;;;5068575;28;20466;-77
2022/06/20 03:16:47;;;;;;;10.27;6.37;;;19.00;99.90;;;;;;5068309;28;20427;-77
2022/06/20 03:19:20;;;;;;;12.53;4.83;;;19.00;99.90;;;;;;5068495;28;20446;-78
2022/06/20 03:21:47;;;;;;;13.20;5.20;;;19.00;99.90;;;;;;5064718;28;20185;-77
2022/06/20 03:24:21;;;;;;;19.67;5.47;;;19.00;99.90;;;;;;5058040;28;20450;-77
2022/06/20 03:26:47;;;;;;;7.53;4.90;;;19.00;99.90;;;;;;5069258;28;20498;-79
2022/06/20 03:29:16;;;;;;;7.33;4.73;;;19.00;99.90;;;;;;5053469;28;20475;-77
2022/06/20 03:31:42;;;;;;;18.37;6.27;;;19.00;99.90;;;;;;5062983;28;20923;-77
2022/06/20 03:34:08;;;;;;;14.93;5.93;;;19.00;99.90;;;;;;5068362;28;20474;-77
2022/06/20 03:36:34;;;;;;;10.73;5.10;;;19.00;99.90;;;;;;5055994;28;20432;-77
2022/06/20 03:39:01;;;;;;;14.30;5.90;;;19.00;99.90;;;;;;5066010;28;20439;-78
2022/06/20 03:41:27;;;;;;;9.20;4.93;;;18.90;99.90;;;;;;5069683;28;20534;-77
2022/06/20 03:44:12;;;;;;;18.20;6.50;;;18.90;99.90;;;;;;5068538;28;20465;-77
2022/06/20 03:46:46;;;;;;;12.33;6.27;;;18.80;99.90;;;;;;5062624;28;20428;-77
2022/06/20 03:49:19;;;;;;;28.73;7.07;;;18.80;99.90;;;;;;5057201;28;20966;-78
2022/06/20 03:51:51;;;;;;;11.90;5.60;;;18.80;99.90;;;;;;5062108;28;20416;-77
2022/06/20 03:54:29;;;;;;;12.90;5.60;;;18.80;99.90;;;;;;5062588;28;20474;-77
2022/06/20 03:57:01;;;;;;;8.00;4.50;;;18.80;99.90;;;;;;5068888;28;20445;-78
2022/06/20 03:59:44;;;;;;;9.77;5.47;;;18.90;99.90;;;;;;5067963;28;20973;-78
2022/06/20 04:02:18;;;;;;;26.63;6.80;;;19.00;99.90;;;;;;5066466;28;20421;-77
2022/06/20 04:05:28;;;;;;;9.43;4.77;;;19.20;99.90;;;;;;5067247;28;20453;-77
2022/06/20 04:08:12;;;;;;;12.90;6.33;;;19.10;99.90;;;;;;5015889;28;20454;-77
2022/06/20 04:10:58;;;;;;;12.87;5.97;;;19.00;99.90;;;;;;5056756;28;20599;-77
2022/06/20 04:13:52;;;;;;;29.83;7.10;;;18.90;99.90;;;;;;5068151;28;20481;-79
2022/06/20 04:16:20;;;;;;;14.20;6.20;;;18.90;99.90;;;;;;5067486;28;20518;-77
2022/06/20 04:19:06;;;;;;;15.63;7.33;;;18.70;99.90;;;;;;5064863;28;20977;-77
2022/06/20 04:21:47;;;;;;;33.40;7.03;;;18.70;99.90;;;;;;5075682;28;20447;-78
2022/06/20 04:24:31;;;;;;;13.60;6.70;;;18.60;99.90;;;;;;5066213;28;20439;-77
2022/06/20 04:27:24;;;;;;;18.30;7.87;;;18.50;99.90;;;;;;5067385;28;20430;-76
2022/06/20 04:29:57;;;;;;;26.30;7.23;;;18.40;99.90;;;;;;5057929;28;20420;-78
2022/06/20 04:32:39;;;;;;;23.07;8.43;;;18.30;99.90;;;;;;5066945;28;20430;-76
2022/06/20 04:35:26;;;;;;;19.30;7.87;;;18.30;99.90;;;;;;5066090;28;21062;-76
2022/06/20 04:38:13;;;;;;;17.53;7.10;;;18.40;99.90;;;;;;5055389;28;20423;-75
2022/06/20 04:40:59;;;;;;;15.80;7.90;;;18.50;99.90;;;;;;5067890;28;20745;-78
2022/06/20 04:43:38;;;;;;;22.03;7.10;;;18.40;99.90;;;;;;5066402;28;20507;-76
2022/06/20 04:46:19;;;;;;;16.90;8.87;;;18.40;99.90;;;;;;5066826;28;20498;-76
2022/06/20 04:48:47;;;;;;;12.33;8.17;;;18.40;99.90;;;;;;5064629;28;20439;-75
2022/06/20 04:51:17;;;;;;;24.73;7.93;;;18.40;99.90;;;;;;5064293;28;20448;-76
2022/06/20 04:53:45;;;;;;;17.73;8.10;;;18.40;99.90;;;;;;5066321;28;20472;-76
2022/06/20 04:56:14;;;;;;;13.27;7.73;;;18.40;99.90;;;;;;5064291;28;20439;-77
2022/06/20 04:58:53;;;;;;;22.17;8.60;;;18.40;99.90;;;;;;5066390;28;20422;-76
2022/06/20 05:01:20;;;;;;;28.93;8.73;;;18.40;99.90;;;;;;5066816;28;20419;-79
2022/06/20 05:03:55;;;;;;;14.43;8.73;;;18.50;99.90;;;;;;5066920;28;20447;-76
2022/06/20 05:06:24;;;;;;;22.40;7.00;;;18.60;99.90;;;;;;5066058;28;20875;-78
2022/06/20 05:08:54;;;;;;;13.53;7.00;;;18.60;99.90;;;;;;5065088;28;20514;-76
2022/06/20 05:11:35;;;;;;;17.20;7.90;;;18.60;99.90;;;;;;5066514;28;20910;-78
2022/06/20 05:14:13;;;;;;;13.50;6.93;;;18.60;99.90;;;;;;5066525;28;20490;-76
2022/06/20 05:16:47;;;;;;;15.50;7.67;;;18.60;99.90;;;;;;5062726;28;20429;-76
2022/06/20 05:19:24;;;;;;;21.23;7.47;;;18.70;99.90;;;;;;5066981;28;21092;-78
2022/06/20 05:21:55;;;;;;;13.93;6.67;;;18.80;99.90;;;;;;5066233;28;20411;-76
2022/06/20 05:24:28;;;;;;;18.50;7.53;;;18.70;99.90;;;;;;5068835;28;20855;-78
2022/06/20 05:26:55;;;;;;;31.93;8.30;;;18.70;99.90;;;;;;5071219;28;21003;-76
2022/06/20 05:29:23;;;;;;;17.47;7.60;;;18.60;99.90;;;;;;5058838;28;20526;-77
2022/06/20 05:31:52;;;;;;;29.33;8.57;;;18.60;99.90;;;;;;5066219;28;20423;-76
2022/06/20 05:34:26;;;;;;;21.13;7.53;;;18.70;99.90;;;;;;5066107;28;20475;-77
2022/06/20 05:37:12;;;;;;;10.90;7.27;;;18.80;99.90;;;;;;5065660;28;20433;-78
2022/06/20 05:39:47;;;;;;;17.97;8.10;;;18.80;99.90;;;;;;5064610;28;20504;-78
2022/06/20 05:42:16;;;;;;;14.57;6.80;;;18.70;99.90;;;;;;5064622;28;20415;-78
2022/06/20 05:44:41;;;;;;;17.27;7.60;;;18.70;99.90;;;;;;5066155;28;20520;-77
2022/06/20 05:47:23;;;;;;;15.47;8.60;;;18.80;99.90;;;;;;5067097;28;20518;-76
2022/06/20 05:50:20;;;;;;;18.60;7.80;;;18.90;99.90;;;;;;5069199;28;20587;-76
2022/06/20 05:52:46;;;;;;;18.83;7.60;;;18.90;99.90;;;;;;5043128;28;20786;-80
2022/06/20 05:55:22;;;;;;;28.50;7.70;;;19.00;99.90;;;;;;5069691;28;20473;-77
2022/06/20 05:57:50;;;;;;;19.60;8.13;;;19.10;99.90;;;;;;5055833;28;20456;-79
2022/06/20 06:00:20;;;;;;;17.20;7.77;;;19.20;99.90;;;;;;5049498;28;20523;-77
2022/06/20 06:02:59;;;;;;;18.07;8.50;;;19.20;99.90;;;;;;5059023;28;20484;-78
2022/06/20 06:05:27;;;;;;;10.73;7.67;;;19.10;99.90;;;;;;5063872;28;20957;-77
2022/06/20 06:08:02;;;;;;;13.23;7.70;;;19.30;99.90;;;;;;5068279;28;20423;-79
2022/06/20 06:10:43;;;;;;;14.00;8.60;;;19.40;99.90;;;;;;5064862;28;20430;-77
2022/06/20 06:13:11;;;;;;;21.23;7.20;;;19.50;99.90;;;;;;5051934;28;20431;-75
2022/06/20 06:16:46;;;;;;;17.53;7.60;;;19.50;99.90;;;;;;5054762;28;20498;-77
2022/06/20 06:18:32;;;;;;;18.10;8.00;;;19.60;99.90;;;;;;5048176;28;21087;-78
2022/06/20 06:20:58;;;;;;;26.83;9.17;;;19.60;99.90;;;;;;5051255;28;20436;-77
2022/06/20 06:23:24;;;;;;;18.90;8.03;;;19.70;99.90;;;;;;5051410;28;20663;-77
2022/06/20 06:25:50;;;;;;;14.73;8.10;;;19.80;99.90;;;;;;5046274;28;20998;-78
2022/06/20 06:28:21;;;;;;;10.43;6.90;;;19.80;99.90;;;;;;5065424;28;20763;-77
2022/06/20 06:31:02;;;;;;;12.63;7.03;;;20.00;99.90;;;;;;5059867;28;20212;-77
2022/06/20 06:33:39;;;;;;;18.40;6.47;;;20.10;99.90;;;;;;5055070;28;20432;-78
2022/06/20 06:36:16;;;;;;;14.23;6.80;;;20.20;99.90;;;;;;5048946;28;20515;-76
2022/06/20 06:39:08;;;;;;;9.80;5.93;;;20.20;99.90;;;;;;5052398;28;20412;-76
2022/06/20 06:41:37;;;;;;;19.23;6.10;;;20.40;99.90;;;;;;5037431;28;20443;-77
2022/06/20 06:44:13;;;;;;;17.20;5.30;;;20.40;99.90;;;;;;5051520;28;20497;-76
2022/06/20 06:46:41;;;;;;;8.47;4.57;;;20.50;99.90;;;;;;5049552;28;20430;-77
2022/06/20 06:49:10;;;;;;;18.37;4.80;;;20.60;99.90;;;;;;5050704;28;20432;-77
2022/06/20 06:51:59;;;;;;;7.70;4.30;;;20.60;99.90;;;;;;5047699;28;20432;-76
2022/06/20 06:54:41;;;;;;;11.33;5.23;;;20.70;99.90;;;;;;5051276;28;20478;-78
2022/06/20 06:57:25;;;;;;;11.43;4.67;;;20.90;99.90;;;;;;5065157;28;20407;-76
2022/06/20 07:00:02;;;;;;;16.93;4.83;;;21.10;99.90;;;;;;5065485;28;20434;-78
2022/06/20 07:02:33;;;;;;;10.43;5.10;;;21.00;99.90;;;;;;5067094;28;20416;-77
2022/06/20 07:05:09;;;;;;;6.17;3.80;;;21.00;99.90;;;;;;5065791;28;21132;-77
2022/06/20 07:07:46;;;;;;;13.67;6.37;;;21.00;99.90;;;;;;5066329;28;20800;-78
2022/06/20 07:10:18;;;;;;;13.27;4.63;;;21.10;99.90;;;;;;5067114;28;20431;-78
2022/06/20 07:12:49;;;;;;;19.00;4.97;;;21.30;99.90;;;;;;5063854;28;20521;-78
2022/06/20 07:15:23;;;;;;;8.17;4.23;;;21.50;99.90;;;;;;5066965;28;20475;-78
2022/06/20 07:17:56;;;;;;;11.00;4.63;;;21.70;99.90;;;;;;5065036;28;20435;-78
2022/06/20 07:20:26;;;;;;;7.50;4.30;;;21.90;99.90;;;;;;5066238;28;20820;-79
2022/06/20 07:22:53;;;;;;;9.70;4.20;;;22.20;99.90;;;;;;5063001;28;20513;-77
2022/06/20 07:25:24;;;;;;;11.17;4.33;;;22.60;99.90;;;;;;5063322;28;20462;-77
2022/06/20 07:28:34;;;;;;;11.27;4.30;;;22.90;99.90;;;;;;5065889;28;20942;-76
2022/06/20 07:31:04;;;;;;;7.90;3.93;;;23.40;99.90;;;;;;5041743;28;20964;-77
2022/06/20 07:33:42;;;;;;;9.00;4.17;;;23.80;99.90;;;;;;5063874;28;20481;-77
2022/06/20 07:36:10;;;;;;;15.00;3.60;;;24.10;99.90;;;;;;5066574;28;20538;-78
2022/06/20 07:38:50;;;;;;;9.00;4.30;;;24.60;99.90;;;;;;5061195;28;20458;-77
2022/06/20 07:41:27;;;;;;;7.27;3.03;;;25.10;99.90;;;;;;5066154;28;20803;-78
2022/06/20 07:44:05;;;;;;;11.90;3.47;;;25.80;99.10;;;;;;5063141;28;20450;-75
2022/06/20 07:46:47;;;;;;;12.93;2.95;;;26.70;98.50;;;;;;5057249;28;20192;-75
2022/06/20 07:49:22;;;;;;;4.25;3.05;;;27.70;97.20;;;;;;5059301;28;20196;-76
2022/06/20 07:51:51;;;;;;;8.15;3.05;;;28.50;94.30;;;;;;5064354;28;20907;-78
2022/06/20 07:54:33;;;;;;;6.97;3.58;;;28.90;91.80;;;;;;5061228;28;20212;-77
2022/06/20 07:57:17;;;;;;;7.93;3.35;;;29.30;92.30;;;;;;5064464;28;20259;-76
2022/06/20 08:00:03;;;;;;;14.75;3.78;;;29.60;88.90;;;;;;5059749;28;20282;-77
2022/06/20 08:03:00;;;;;;;12.77;3.00;;;30.00;90.30;;;;;;5060475;28;20183;-76
2022/06/20 08:05:44;;;;;;;10.52;3.67;;;29.90;89.70;;;;;;5062534;28;20698;-77
2022/06/20 08:08:22;;;;;;;10.77;3.05;;;30.60;86.90;;;;;;5064442;28;20189;-79
2022/06/20 08:11:06;;;;;;;7.70;3.60;;;30.40;90.40;;;;;;5057294;28;20246;-79
2022/06/20 08:13:38;;;;;;;5.63;3.83;;;30.50;91.00;;;;;;5057962;28;20201;-79
2022/06/20 08:16:09;;;;;;;7.93;2.88;;;30.50;88.90;;;;;;5060985;28;20415;-77
2022/06/20 08:18:35;;;;;;;19.30;3.97;;;31.10;81.60;;;;;;5063561;28;20206;-79
2022/06/20 08:21:14;;;;;;;5.97;3.13;;;30.80;84.70;;;;;;5062020;28;20632;-79
2022/06/20 08:23:50;;;;;;;8.05;2.90;;;30.90;78.80;;;;;;5059451;28;20208;-77
2022/06/20 08:26:23;;;;;;;10.38;2.88;;;31.10;72.60;;;;;;5063667;28;20197;-81
2022/06/20 08:28:55;;;;;;;23.55;3.05;;;30.80;76.30;;;;;;5059046;28;20184;-81
2022/06/20 08:31:32;;;;;;;5.82;2.97;;;30.50;78.80;;;;;;5066323;28;20180;-77
2022/06/20 08:34:24;;;;;;;4.40;2.38;;;30.70;72.20;;;;;;5069474;28;20204;-80
2022/06/20 08:37:08;;;;;;;8.80;2.70;;;31.10;71.70;;;;;;5053911;28;20260;-78
2022/06/20 08:39:37;;;;;;;5.50;2.90;;;31.10;71.10;;;;;;5061023;28;20181;-81
2022/06/20 08:42:09;;;;;;;7.55;3.22;;;31.00;70.20;;;;;;5055195;28;20198;-80
2022/06/20 08:44:40;;;;;;;6.68;3.03;;;31.10;71.40;;;;;;5067727;28;20555;-78
2022/06/20 08:47:18;;;;;;;5.90;2.35;;;31.00;69.30;;;;;;5059302;28;20621;-78
2022/06/20 08:49:49;;;;;;;8.88;2.80;;;31.30;69.60;;;;;;5054717;28;20292;-76
2022/06/20 08:52:19;;;;;;;7.85;2.85;;;31.30;68.00;;;;;;5063954;28;20807;-78
2022/06/20 08:54:53;;;;;;;13.68;3.20;;;31.00;70.80;;;;;;5054069;28;20219;-78
2022/06/20 08:57:46;;;;;;;11.25;3.38;;;30.90;73.70;;;;;;5057852;28;20175;-75
2022/06/20 09:00:42;;;;;;;4.07;2.83;;;31.00;70.60;;;;;;5062155;28;20180;-80
2022/06/20 09:03:47;;;;;;;4.50;2.75;;;31.30;70.60;;;;;;5057169;28;20176;-81
2022/06/20 09:06:45;;;;;;;20.63;3.72;;;31.30;70.80;;;;;;5061634;28;20605;-80
2022/06/20 09:09:37;;;;;;;5.80;3.70;;;31.20;68.50;;;;;;5037348;28;20693;-81
2022/06/20 09:12:26;;;;;;;7.05;3.20;;;31.40;66.10;;;;;;5056517;28;20260;-80
2022/06/20 09:15:23;;;;;;;18.67;3.38;;;31.60;69.90;;;;;;5056401;28;20261;-75
2022/06/20 09:17:55;;;;;;;7.78;3.63;;;31.70;68.50;;;;;;5065251;28;20230;-78
2022/06/20 09:20:43;;;;;;;9.27;3.30;;;31.60;69.60;;;;;;5053464;28;20263;-78
2022/06/20 09:23:31;;;;;;;5.20;3.58;;;31.60;69.60;;;;;;5071548;28;20276;-79
2022/06/20 09:26:14;;;;;;;16.20;3.47;;;31.30;69.40;;;;;;5060116;28;20245;-79
2022/06/20 09:29:07;;;;;;;9.65;3.95;;;31.40;68.80;;;;;;5065040;28;20177;-79
2022/06/20 09:31:52;;;;;;;32.65;4.13;;;31.30;69.10;;;;;;5062590;28;20233;-81
2022/06/20 09:34:36;;;;;;;6.43;2.45;;;31.90;67.60;;;;;;5061247;28;20204;-80
2022/06/20 09:37:22;;;;;;;11.20;3.08;;;31.60;68.70;;;;;;5060498;28;20191;-81
2022/06/20 09:40:23;;;;;;;8.73;3.40;;;31.60;65.80;;;;;;5053384;28;20547;-78
2022/06/20 09:43:02;;;;;;;6.57;3.15;;;31.40;65.20;;;;;;5054431;28;20183;-78
2022/06/20 09:46:13;;;;;;;5.00;2.65;;;31.00;67.70;;;;;;5052712;28;20254;-78
2022/06/20 09:49:09;;;;;;;4.18;2.63;;;30.90;67.40;;;;;;5068802;28;20239;-78
2022/06/20 09:51:34;;;;;;;14.63;3.10;;;30.90;70.70;;;;;;5062952;28;20180;-79
2022/06/20 09:54:10;;;;;;;6.35;2.65;;;31.10;66.00;;;;;;5060917;28;20258;-75
2022/06/20 09:56:43;;;;;;;8.00;3.03;;;30.90;65.90;;;;;;5060251;28;20188;-81
2022/06/20 09:59:27;;;;;;;7.85;3.90;;;30.80;66.80;;;;;;5065121;28;20231;-79
2022/06/20 10:02:13;;;;;;;7.15;2.70;;;31.10;63.70;;;;;;5069978;28;20184;-80
2022/06/20 10:05:11;;;;;;;4.45;2.65;;;31.30;65.10;;;;;;5056422;28;20207;-81
2022/06/20 10:07:46;;;;;;;6.07;2.28;;;31.40;63.30;;;;;;5055590;28;20185;-79
2022/06/20 10:10:33;;;;;;;13.48;3.00;;;31.60;62.80;;;;;;5069160;28;20648;-80
2022/06/20 10:13:10;;;;;;;6.43;2.55;;;31.40;64.00;;;;;;5069505;28;20334;-78
2022/06/20 10:16:08;;;;;;;3.85;1.98;;;31.30;62.50;;;;;;5069719;28;20298;-80
2022/06/20 10:18:54;;;;;;;3.33;1.88;;;31.10;63.50;;;;;;5063216;28;20187;-78
2022/06/20 10:21:27;;;;;;;3.22;1.95;;;30.80;64.50;;;;;;5069083;28;20259;-81
2022/06/20 10:24:23;;;;;;;3.72;2.40;;;30.50;65.00;;;;;;5065875;28;20577;-82
2022/06/20 10:27:05;;;;;;;4.78;2.28;;;30.20;66.50;;;;;;5060630;28;20260;-76
2022/06/20 10:30:05;;;;;;;14.13;2.40;;;30.30;68.60;;;;;;5065118;28;20179;-80
2022/06/20 10:32:54;;;;;;;4.85;2.47;;;30.20;63.90;;;;;;5049212;28;20879;-78
2022/06/20 10:35:43;;;;;;;8.85;2.47;;;29.80;64.30;;;;;;5054511;28;20247;-74
2022/06/20 10:38:27;;;;;;;3.15;1.90;;;29.60;65.40;;;;;;5067126;28;20172;-78
2022/06/20 10:41:16;;;;;;;10.90;2.90;;;29.70;66.30;;;;;;5068911;28;20607;-78
2022/06/20 10:43:59;;;;;;;13.70;2.50;;;29.60;65.40;;;;;;5068539;28;20647;-79
2022/06/20 10:46:59;;;;;;;12.43;2.93;;;29.50;68.40;;;;;;5068921;28;20283;-78
2022/06/20 10:49:48;;;;;;;5.57;2.77;;;29.50;66.90;;;;;;5049168;28;20204;-78
2022/06/20 10:52:28;;;;;;;3.97;2.20;;;29.60;66.80;;;;;;5065482;28;20220;-80
2022/06/20 10:55:04;;;;;;;7.43;2.03;;;29.60;67.80;;;;;;5068350;28;20219;-80
2022/06/20 10:57:51;;;;;;;3.83;1.80;;;29.50;69.80;;;;;;5059882;28;21001;-81
2022/06/20 11:00:20;;;;;;;4.73;1.90;;;29.50;69.30;;;;;;5068154;28;20198;-78
2022/06/20 11:03:24;;;;;;;5.03;2.13;;;29.40;68.60;;;;;;5062223;28;20587;-80
2022/06/20 11:05:58;;;;;;;3.27;1.90;;;29.40;67.60;;;;;;5057846;28;20699;-80
2022/06/20 11:08:56;;;;;;;4.73;1.97;;;29.60;71.40;;;;;;5061020;28;20244;-78
2022/06/20 11:11:21;;;;;;;3.87;2.27;;;29.30;68.70;;;;;;5068203;28;20177;-80
2022/06/20 11:14:05;;;;;;;7.57;2.47;;;29.10;68.70;;;;;;5062502;28;20215;-78
2022/06/20 11:16:48;;;;;;;9.50;2.70;;;28.80;69.60;;;;;;5068024;28;20302;-79
2022/06/20 11:19:52;;;;;;;9.10;2.80;;;28.30;71.70;;;;;;5056807;28;20183;-78
2022/06/20 11:22:38;;;;;;;4.30;1.87;;;28.10;73.40;;;;;;5005023;28;20228;-76
2022/06/20 11:25:09;;;;;;;5.13;1.90;;;27.90;71.90;;;;;;4977453;28;20240;-77
2022/06/20 11:27:56;;;;;;;5.70;1.90;;;27.60;72.70;;;;;;5033564;28;20197;-78
2022/06/20 11:30:50;;;;;;;5.30;1.57;;;27.50;75.40;;;;;;5049872;28;20185;-78
2022/06/20 11:34:01;;;;;;;3.83;2.30;;;27.50;73.40;;;;;;5037955;28;20424;-77
2022/06/20 11:37:07;;;;;;;5.60;2.33;;;27.70;74.40;;;;;;5056536;28;20930;-75
2022/06/20 11:39:38;;;;;;;7.27;2.23;;;28.00;72.30;;;;;;5046140;28;21149;-76
2022/06/20 11:42:53;;;;;;;6.20;2.00;;;27.80;71.80;;;;;;5049048;28;20420;-77
2022/06/20 11:45:50;;;;;;;5.90;1.80;;;27.60;73.60;;;;;;5015662;28;20204;-75
2022/06/20 11:48:50;;;;;;;6.57;2.00;;;27.30;74.50;;;;;;5064845;28;20780;-76
2022/06/20 11:51:18;;;;;;;5.07;2.30;;;27.30;74.80;;;;;;5067040;28;20500;-77
2022/06/20 11:54:18;;;;;;;3.43;1.70;;;27.10;74.80;;;;;;5066838;28;20449;-77
2022/06/20 11:56:53;;;;;;;3.77;1.97;;;26.70;75.50;;;;;;5055777;28;20494;-77
2022/06/20 11:59:46;;;;;;;4.43;1.60;;;26.20;77.90;;;;;;5051837;28;20918;-78
2022/06/20 12:02:12;;;;;;;5.13;2.27;;;26.00;80.20;;;;;;5043708;28;20488;-76
2022/06/20 12:04:44;;;;;;;3.50;1.80;;;25.90;80.30;;;;;;5067260;28;20443;-76
2022/06/20 12:07:15;;;;;;;5.70;2.07;;;26.40;80.80;;;;;;5066955;28;20199;-76
2022/06/20 12:09:48;;;;;;;8.33;1.90;;;26.50;78.90;;;;;;5067176;28;20418;-77
2022/06/20 12:12:20;;;;;;;7.10;2.03;;;26.80;79.10;;;;;;5061764;28;20952;-76
2022/06/20 12:15:04;;;;;;;2.87;1.67;;;26.80;76.80;;;;;;5066600;28;20969;-79
2022/06/20 12:18:02;;;;;;;3.33;1.70;;;26.80;77.70;;;;;;5061998;28;20941;-76
2022/06/20 12:23:48;;;;;;;3.30;1.50;;;26.40;79.00;;;;;;5060341;28;20461;-78
2022/06/20 12:26:21;;;;;;;7.73;1.63;;;26.10;79.90;;;;;;5059844;28;20453;-77
2022/06/20 12:28:52;;;;;;;3.20;1.27;;;26.20;79.20;;;;;;5066945;28;20433;-76
2022/06/20 12:31:22;;;;;;;6.47;1.30;;;26.10;78.60;;;;;;5065063;28;20509;-76
2022/06/20 12:34:10;;;;;;;6.50;1.47;;;26.00;77.90;;;;;;5066570;28;20443;-79
2022/06/20 12:36:39;;;;;;;2.90;1.43;;;26.20;79.70;;;;;;5063904;28;20423;-78
2022/06/20 12:39:31;;;;;;;3.07;1.70;;;26.20;80.00;;;;;;5066806;28;20975;-75
2022/06/20 12:42:40;;;;;;;2.80;1.53;;;26.20;77.70;;;;;;5056736;28;20474;-76
2022/06/20 12:45:11;;;;;;;5.40;1.50;;;26.50;79.00;;;;;;5057292;28;20450;-76
2022/06/20 12:47:57;;;;;;;4.30;1.90;;;26.40;78.40;;;;;;5062674;28;21061;-76
2022/06/20 12:50:31;;;;;;;6.83;1.60;;;26.50;79.20;;;;;;5059724;28;20485;-76
2022/06/20 12:53:04;;;;;;;3.03;1.70;;;26.40;78.10;;;;;;5054832;28;20970;-76
2022/06/20 12:56:02;;;;;;;2.90;1.77;;;26.20;79.80;;;;;;5063217;28;20492;-76
2022/06/20 12:59:12;;;;;;;2.80;1.67;;;26.50;81.10;;;;;;5063252;28;20513;-77
2022/06/20 13:02:18;;;;;;;4.63;1.80;;;26.70;78.60;;;;;;5068420;28;20422;-77
2022/06/20 13:05:15;;;;;;;7.00;1.57;;;26.20;79.80;;;;;;5063877;28;20457;-76
2022/06/20 13:07:53;;;;;;;11.60;2.00;;;26.00;80.00;;;;;;5069323;28;20406;-72
2022/06/20 13:10:47;;;;;;;6.73;1.93;;;25.60;80.40;;;;;;5059614;28;20440;-77
2022/06/20 13:13:24;;;;;;;7.13;1.80;;;25.50;81.40;;;;;;5070590;28;20434;-76
2022/06/20 13:15:55;;;;;;;1.90;0.83;;;25.40;80.10;;;;;;5072605;28;20547;-77
2022/06/20 13:18:58;;;;;;;2.60;1.10;;;25.40;79.30;;;;;;5066893;28;20438;-76
2022/06/20 13:21:47;;;;;;;10.00;1.83;;;25.30;80.50;;;;;;5052552;28;20490;-77
2022/06/20 13:24:38;;;;;;;17.27;2.60;;;25.20;80.40;;;;;;5055120;28;20445;-76
2022/06/20 13:27:31;;;;;;;3.13;1.37;;;25.10;84.10;;;;;;5053817;28;20514;-76
2022/06/20 13:30:11;;;;;;;13.93;2.60;;;25.00;84.90;;;;;;5052837;28;20961;-76
2022/06/20 13:32:52;;;;;;;6.03;2.27;;;24.80;87.50;;;;;;5052628;28;20450;-76
2022/06/20 13:35:42;;;;;;;3.63;1.90;;;24.60;87.80;;;;;;5050202;28;20791;-76
2022/06/20 13:38:25;;;;;;;14.77;2.70;;;24.60;88.00;;;;;;5056655;28;20880;-77
2022/06/20 13:41:05;;;;;;;6.23;2.50;;;24.40;89.10;;;;;;5053432;28;20415;-75
2022/06/20 13:43:56;;;;;;;9.50;3.00;;;24.20;89.60;;;;;;5055746;28;20442;-78